sensor_id;sensor_type;location;lat;lon;timestamp;temperature;humidity
29663;DHT22;16578;53.266;7.920;2023-02-01T00:02:04;9.70;73.00
29663;DHT22;16578;53.266;7.920;2023-02-01T00:04:29;9.70;73.10
29663;DHT22;16578;53.266;7.920;2023-02-01T00:06:55;9.70;73.10
29663;DHT22;16578;53.266;7.920;2023-02-01T00:09:21;9.70;73.00
29663;DHT22;16578;53.266;7.920;2023-02-01T00:11:46;9.70;73.10
29663;DHT22;16578;53.266;7.920;2023-02-01T00:14:12;9.70;73.10
29663;DHT22;16578;53.266;7.920;2023-02-01T00:16:38;9.70;73.10
29663;DHT22;16578;53.266;7.920;2023-02-01T00:19:10;9.70;73.00
29663;DHT22;16578;53.266;7.920;2023-02-01T00:21:36;9.70;73.00
29663;DHT22;16578;53.266;7.920;2023-02-01T00:24:02;9.80;73.10
29663;DHT22;16578;53.266;7.920;2023-02-01T00:26:33;9.80;73.10
29663;DHT22;16578;53.266;7.920;2023-02-01T00:29:01;9.80;73.00
29663;DHT22;16578;53.266;7.920;2023-02-01T00:31:27;9.80;73.00
29663;DHT22;16578;53.266;7.920;2023-02-01T00:33:52;9.80;72.80
29663;DHT22;16578;53.266;7.920;2023-02-01T00:36:18;9.80;72.80
29663;DHT22;16578;53.266;7.920;2023-02-01T00:38:44;9.80;72.80
29663;DHT22;16578;53.266;7.920;2023-02-01T00:41:12;9.80;72.80
29663;DHT22;16578;53.266;7.920;2023-02-01T00:43:39;9.80;72.80
29663;DHT22;16578;53.266;7.920;2023-02-01T00:46:05;9.80;72.70
29663;DHT22;16578;53.266;7.920;2023-02-01T00:48:31;9.70;72.50
29663;DHT22;16578;53.266;7.920;2023-02-01T00:51:05;9.80;72.60
29663;DHT22;16578;53.266;7.920;2023-02-01T00:53:31;9.70;72.60
29663;DHT22;16578;53.266;7.920;2023-02-01T00:55:57;9.70;72.80
29663;DHT22;16578;53.266;7.920;2023-02-01T00:58:23;9.70;72.70
29663;DHT22;16578;53.266;7.920;2023-02-01T01:01:19;9.80;72.80
29663;DHT22;16578;53.266;7.920;2023-02-01T01:03:47;9.80;72.80
29663;DHT22;16578;53.266;7.920;2023-02-01T01:06:15;9.80;73.00
29663;DHT22;16578;53.266;7.920;2023-02-01T01:08:41;9.70;72.90
29663;DHT22;16578;53.266;7.920;2023-02-01T01:11:09;9.80;72.90
29663;DHT22;16578;53.266;7.920;2023-02-01T01:13:36;9.80;72.80
29663;DHT22;16578;53.266;7.920;2023-02-01T01:16:03;9.80;72.90
29663;DHT22;16578;53.266;7.920;2023-02-01T01:18:30;9.80;73.00
29663;DHT22;16578;53.266;7.920;2023-02-01T01:20:56;9.80;72.90
29663;DHT22;16578;53.266;7.920;2023-02-01T01:23:22;9.80;72.80
29663;DHT22;16578;53.266;7.920;2023-02-01T01:25:47;9.90;72.80
29663;DHT22;16578;53.266;7.920;2023-02-01T01:28:13;9.80;72.80
29663;DHT22;16578;53.266;7.920;2023-02-01T01:30:38;9.80;72.70
29663;DHT22;16578;53.266;7.920;2023-02-01T01:33:04;9.90;72.80
29663;DHT22;16578;53.266;7.920;2023-02-01T01:35:31;9.90;72.70
29663;DHT22;16578;53.266;7.920;2023-02-01T01:37:57;9.90;72.60
29663;DHT22;16578;53.266;7.920;2023-02-01T01:40:23;9.90;72.70
29663;DHT22;16578;53.266;7.920;2023-02-01T01:42:49;9.90;72.60
29663;DHT22;16578;53.266;7.920;2023-02-01T01:45:20;9.90;72.60
29663;DHT22;16578;53.266;7.920;2023-02-01T01:47:53;9.90;72.50
29663;DHT22;16578;53.266;7.920;2023-02-01T01:50:26;9.90;72.50
29663;DHT22;16578;53.266;7.920;2023-02-01T01:52:54;9.90;72.50
29663;DHT22;16578;53.266;7.920;2023-02-01T01:55:21;9.90;72.40
29663;DHT22;16578;53.266;7.920;2023-02-01T01:58:00;9.90;72.40
29663;DHT22;16578;53.266;7.920;2023-02-01T02:00:27;9.90;72.30
29663;DHT22;16578;53.266;7.920;2023-02-01T02:02:58;9.90;72.30
29663;DHT22;16578;53.266;7.920;2023-02-01T02:05:25;9.90;72.30
29663;DHT22;16578;53.266;7.920;2023-02-01T02:07:53;9.80;72.40
29663;DHT22;16578;53.266;7.920;2023-02-01T02:10:19;9.90;72.40
29663;DHT22;16578;53.266;7.920;2023-02-01T02:12:46;9.90;72.50
29663;DHT22;16578;53.266;7.920;2023-02-01T02:15:14;9.90;72.50
29663;DHT22;16578;53.266;7.920;2023-02-01T02:17:46;9.90;72.40
29663;DHT22;16578;53.266;7.920;2023-02-01T02:34:04;9.90;72.50
29663;DHT22;16578;53.266;7.920;2023-02-01T02:39:24;9.80;72.70
29663;DHT22;16578;53.266;7.920;2023-02-01T02:41:58;9.80;72.70
29663;DHT22;16578;53.266;7.920;2023-02-01T02:44:54;9.80;72.80
29663;DHT22;16578;53.266;7.920;2023-02-01T02:48:15;9.80;73.00
29663;DHT22;16578;53.266;7.920;2023-02-01T02:50:58;9.80;73.10
29663;DHT22;16578;53.266;7.920;2023-02-01T02:53:53;9.80;73.20
29663;DHT22;16578;53.266;7.920;2023-02-01T02:56:40;9.80;73.30
29663;DHT22;16578;53.266;7.920;2023-02-01T02:59:26;9.80;73.40
29663;DHT22;16578;53.266;7.920;2023-02-01T03:02:13;9.70;73.50
29663;DHT22;16578;53.266;7.920;2023-02-01T03:04:57;9.70;73.50
29663;DHT22;16578;53.266;7.920;2023-02-01T03:07:49;9.70;73.70
29663;DHT22;16578;53.266;7.920;2023-02-01T03:10:35;9.70;74.00
29663;DHT22;16578;53.266;7.920;2023-02-01T03:13:19;9.60;74.00
29663;DHT22;16578;53.266;7.920;2023-02-01T03:15:59;9.60;74.10
29663;DHT22;16578;53.266;7.920;2023-02-01T03:18:32;9.60;74.20
29663;DHT22;16578;53.266;7.920;2023-02-01T03:21:01;9.50;74.20
29663;DHT22;16578;53.266;7.920;2023-02-01T03:23:31;9.60;74.40
29663;DHT22;16578;53.266;7.920;2023-02-01T03:26:00;9.60;74.50
29663;DHT22;16578;53.266;7.920;2023-02-01T03:28:29;9.60;74.60
29663;DHT22;16578;53.266;7.920;2023-02-01T03:30:55;9.50;74.50
29663;DHT22;16578;53.266;7.920;2023-02-01T03:33:23;9.50;74.40
29663;DHT22;16578;53.266;7.920;2023-02-01T03:36:35;9.50;74.40
29663;DHT22;16578;53.266;7.920;2023-02-01T03:41:45;9.40;75.30
29663;DHT22;16578;53.266;7.920;2023-02-01T03:44:17;9.40;75.40
29663;DHT22;16578;53.266;7.920;2023-02-01T03:47:02;9.30;74.70
29663;DHT22;16578;53.266;7.920;2023-02-01T03:49:38;9.30;74.90
29663;DHT22;16578;53.266;7.920;2023-02-01T03:52:08;9.30;75.20
29663;DHT22;16578;53.266;7.920;2023-02-01T03:54:36;9.30;75.40
29663;DHT22;16578;53.266;7.920;2023-02-01T03:57:06;9.30;75.50
29663;DHT22;16578;53.266;7.920;2023-02-01T03:59:33;9.30;75.60
29663;DHT22;16578;53.266;7.920;2023-02-01T04:01:58;9.30;75.70
29663;DHT22;16578;53.266;7.920;2023-02-01T04:04:24;9.30;75.70
29663;DHT22;16578;53.266;7.920;2023-02-01T04:06:50;9.30;75.80
29663;DHT22;16578;53.266;7.920;2023-02-01T04:09:17;9.30;75.80
29663;DHT22;16578;53.266;7.920;2023-02-01T04:11:43;9.30;75.90
29663;DHT22;16578;53.266;7.920;2023-02-01T04:14:09;9.30;75.90
29663;DHT22;16578;53.266;7.920;2023-02-01T04:16:34;9.30;75.80
29663;DHT22;16578;53.266;7.920;2023-02-01T04:19:00;9.30;75.80
29663;DHT22;16578;53.266;7.920;2023-02-01T04:21:27;9.30;75.90
29663;DHT22;16578;53.266;7.920;2023-02-01T04:23:53;9.40;76.00
29663;DHT22;16578;53.266;7.920;2023-02-01T04:26:18;9.30;76.00
29663;DHT22;16578;53.266;7.920;2023-02-01T04:28:45;9.30;76.00
29663;DHT22;16578;53.266;7.920;2023-02-01T04:31:13;9.40;76.10
29663;DHT22;16578;53.266;7.920;2023-02-01T04:33:39;9.40;76.10
29663;DHT22;16578;53.266;7.920;2023-02-01T04:36:04;9.40;76.10
29663;DHT22;16578;53.266;7.920;2023-02-01T04:38:30;9.40;76.10
29663;DHT22;16578;53.266;7.920;2023-02-01T04:40:57;9.40;76.00
29663;DHT22;16578;53.266;7.920;2023-02-01T04:43:23;9.40;76.00
29663;DHT22;16578;53.266;7.920;2023-02-01T04:45:49;9.50;76.00
29663;DHT22;16578;53.266;7.920;2023-02-01T04:48:16;9.50;75.90
29663;DHT22;16578;53.266;7.920;2023-02-01T04:50:43;9.50;75.80
29663;DHT22;16578;53.266;7.920;2023-02-01T04:53:10;9.50;75.80
29663;DHT22;16578;53.266;7.920;2023-02-01T04:55:36;9.50;75.80
29663;DHT22;16578;53.266;7.920;2023-02-01T04:58:01;9.50;75.60
29663;DHT22;16578;53.266;7.920;2023-02-01T05:00:27;9.50;75.60
29663;DHT22;16578;53.266;7.920;2023-02-01T05:02:52;9.40;75.50
29663;DHT22;16578;53.266;7.920;2023-02-01T05:05:18;9.40;75.40
29663;DHT22;16578;53.266;7.920;2023-02-01T05:07:45;9.40;75.40
29663;DHT22;16578;53.266;7.920;2023-02-01T05:10:10;9.40;75.40
29663;DHT22;16578;53.266;7.920;2023-02-01T05:12:36;9.40;76.30
29663;DHT22;16578;53.266;7.920;2023-02-01T05:15:20;9.40;75.50
29663;DHT22;16578;53.266;7.920;2023-02-01T05:17:45;9.40;75.50
29663;DHT22;16578;53.266;7.920;2023-02-01T05:20:11;9.40;75.70
29663;DHT22;16578;53.266;7.920;2023-02-01T05:22:36;9.30;75.70
29663;DHT22;16578;53.266;7.920;2023-02-01T05:25:02;9.40;75.80
29663;DHT22;16578;53.266;7.920;2023-02-01T05:27:30;9.40;76.00
29663;DHT22;16578;53.266;7.920;2023-02-01T05:29:55;9.40;76.10
29663;DHT22;16578;53.266;7.920;2023-02-01T05:32:21;9.40;76.20
29663;DHT22;16578;53.266;7.920;2023-02-01T05:34:46;9.40;76.30
29663;DHT22;16578;53.266;7.920;2023-02-01T05:37:12;9.40;76.40
29663;DHT22;16578;53.266;7.920;2023-02-01T05:39:38;9.40;76.50
29663;DHT22;16578;53.266;7.920;2023-02-01T05:42:03;9.40;76.60
29663;DHT22;16578;53.266;7.920;2023-02-01T05:44:29;9.40;76.60
29663;DHT22;16578;53.266;7.920;2023-02-01T05:46:54;9.40;76.70
29663;DHT22;16578;53.266;7.920;2023-02-01T05:49:20;9.40;76.70
29663;DHT22;16578;53.266;7.920;2023-02-01T05:51:45;9.40;76.60
29663;DHT22;16578;53.266;7.920;2023-02-01T05:54:11;9.40;76.50
29663;DHT22;16578;53.266;7.920;2023-02-01T05:56:37;9.40;76.40
29663;DHT22;16578;53.266;7.920;2023-02-01T05:59:02;9.40;76.40
29663;DHT22;16578;53.266;7.920;2023-02-01T06:01:28;9.40;76.40
29663;DHT22;16578;53.266;7.920;2023-02-01T06:03:53;9.40;76.30
29663;DHT22;16578;53.266;7.920;2023-02-01T06:06:19;9.40;76.20
29663;DHT22;16578;53.266;7.920;2023-02-01T06:08:45;9.30;75.90
29663;DHT22;16578;53.266;7.920;2023-02-01T06:11:10;9.30;75.90
29663;DHT22;16578;53.266;7.920;2023-02-01T06:13:36;9.30;76.00
29663;DHT22;16578;53.266;7.920;2023-02-01T06:16:04;9.30;76.10
29663;DHT22;16578;53.266;7.920;2023-02-01T06:18:32;9.30;76.20
29663;DHT22;16578;53.266;7.920;2023-02-01T06:20:59;9.30;76.30
29663;DHT22;16578;53.266;7.920;2023-02-01T06:23:29;9.30;76.40
29663;DHT22;16578;53.266;7.920;2023-02-01T06:26:04;9.30;76.50
29663;DHT22;16578;53.266;7.920;2023-02-01T06:28:31;9.30;76.70
29663;DHT22;16578;53.266;7.920;2023-02-01T06:30:57;9.30;76.70
29663;DHT22;16578;53.266;7.920;2023-02-01T06:33:24;9.30;76.90
29663;DHT22;16578;53.266;7.920;2023-02-01T06:35:56;9.30;76.90
29663;DHT22;16578;53.266;7.920;2023-02-01T06:38:22;9.30;76.90
29663;DHT22;16578;53.266;7.920;2023-02-01T06:40:52;9.30;76.90
29663;DHT22;16578;53.266;7.920;2023-02-01T06:43:18;9.40;77.00
29663;DHT22;16578;53.266;7.920;2023-02-01T06:45:44;9.40;77.00
29663;DHT22;16578;53.266;7.920;2023-02-01T06:48:09;9.40;77.00
29663;DHT22;16578;53.266;7.920;2023-02-01T06:50:35;9.40;76.90
29663;DHT22;16578;53.266;7.920;2023-02-01T06:53:00;9.40;76.90
29663;DHT22;16578;53.266;7.920;2023-02-01T06:55:26;9.40;76.80
29663;DHT22;16578;53.266;7.920;2023-02-01T06:57:55;9.40;76.70
29663;DHT22;16578;53.266;7.920;2023-02-01T07:00:22;9.40;76.60
29663;DHT22;16578;53.266;7.920;2023-02-01T07:02:48;9.40;76.50
29663;DHT22;16578;53.266;7.920;2023-02-01T07:05:14;9.40;76.40
29663;DHT22;16578;53.266;7.920;2023-02-01T07:07:39;9.40;76.30
29663;DHT22;16578;53.266;7.920;2023-02-01T07:10:05;9.40;76.30
29663;DHT22;16578;53.266;7.920;2023-02-01T07:12:30;9.40;76.30
29663;DHT22;16578;53.266;7.920;2023-02-01T07:14:56;9.30;77.10
29663;DHT22;16578;53.266;7.920;2023-02-01T07:17:22;9.30;76.30
29663;DHT22;16578;53.266;7.920;2023-02-01T07:19:48;9.30;76.40
29663;DHT22;16578;53.266;7.920;2023-02-01T07:22:16;9.30;76.40
29663;DHT22;16578;53.266;7.920;2023-02-01T07:24:42;9.30;76.50
29663;DHT22;16578;53.266;7.920;2023-02-01T07:27:08;9.30;76.50
29663;DHT22;16578;53.266;7.920;2023-02-01T07:29:33;9.30;76.70
29663;DHT22;16578;53.266;7.920;2023-02-01T07:31:59;9.30;76.80
29663;DHT22;16578;53.266;7.920;2023-02-01T07:34:25;9.30;76.90
29663;DHT22;16578;53.266;7.920;2023-02-01T07:36:51;9.30;77.00
29663;DHT22;16578;53.266;7.920;2023-02-01T07:39:17;9.30;77.00
29663;DHT22;16578;53.266;7.920;2023-02-01T07:41:42;9.40;77.10
29663;DHT22;16578;53.266;7.920;2023-02-01T07:44:08;9.40;77.10
29663;DHT22;16578;53.266;7.920;2023-02-01T07:46:33;9.40;77.00
29663;DHT22;16578;53.266;7.920;2023-02-01T07:48:59;9.40;77.00
29663;DHT22;16578;53.266;7.920;2023-02-01T07:51:24;9.40;77.00
29663;DHT22;16578;53.266;7.920;2023-02-01T07:53:50;9.50;76.90
29663;DHT22;16578;53.266;7.920;2023-02-01T07:56:17;9.50;77.00
29663;DHT22;16578;53.266;7.920;2023-02-01T07:58:47;9.50;76.90
29663;DHT22;16578;53.266;7.920;2023-02-01T08:01:17;9.50;76.80
29663;DHT22;16578;53.266;7.920;2023-02-01T08:04:04;9.60;76.70
29663;DHT22;16578;53.266;7.920;2023-02-01T08:06:32;9.60;76.50
29663;DHT22;16578;53.266;7.920;2023-02-01T08:08:59;9.60;76.50
29663;DHT22;16578;53.266;7.920;2023-02-01T08:11:25;9.70;76.70
29663;DHT22;16578;53.266;7.920;2023-02-01T08:13:51;9.70;76.60
29663;DHT22;16578;53.266;7.920;2023-02-01T08:16:18;9.70;76.40
29663;DHT22;16578;53.266;7.920;2023-02-01T08:18:45;9.70;76.30
29663;DHT22;16578;53.266;7.920;2023-02-01T08:21:17;9.70;76.30
29663;DHT22;16578;53.266;7.920;2023-02-01T08:23:43;9.80;76.40
29663;DHT22;16578;53.266;7.920;2023-02-01T08:26:15;9.80;76.40
29663;DHT22;16578;53.266;7.920;2023-02-01T08:28:43;9.80;76.30
29663;DHT22;16578;53.266;7.920;2023-02-01T08:31:13;9.80;76.30
29663;DHT22;16578;53.266;7.920;2023-02-01T08:33:43;9.80;76.30
29663;DHT22;16578;53.266;7.920;2023-02-01T08:36:10;9.80;76.30
29663;DHT22;16578;53.266;7.920;2023-02-01T08:38:37;9.90;76.30
29663;DHT22;16578;53.266;7.920;2023-02-01T08:41:08;9.90;76.30
29663;DHT22;16578;53.266;7.920;2023-02-01T08:43:34;9.90;76.30
29663;DHT22;16578;53.266;7.920;2023-02-01T08:46:00;9.90;76.20
29663;DHT22;16578;53.266;7.920;2023-02-01T08:48:25;9.90;76.10
29663;DHT22;16578;53.266;7.920;2023-02-01T08:50:51;9.90;76.10
29663;DHT22;16578;53.266;7.920;2023-02-01T08:53:16;10.00;76.10
29663;DHT22;16578;53.266;7.920;2023-02-01T08:55:42;10.00;76.00
29663;DHT22;16578;53.266;7.920;2023-02-01T08:58:08;10.00;76.00
29663;DHT22;16578;53.266;7.920;2023-02-01T09:00:33;10.00;76.00
29663;DHT22;16578;53.266;7.920;2023-02-01T09:02:59;10.00;75.90
29663;DHT22;16578;53.266;7.920;2023-02-01T09:05:24;10.00;75.90
29663;DHT22;16578;53.266;7.920;2023-02-01T09:07:52;10.00;75.90
29663;DHT22;16578;53.266;7.920;2023-02-01T09:10:18;10.10;76.00
29663;DHT22;16578;53.266;7.920;2023-02-01T09:12:43;10.10;76.00
29663;DHT22;16578;53.266;7.920;2023-02-01T09:15:09;10.10;76.00
29663;DHT22;16578;53.266;7.920;2023-02-01T09:17:35;10.10;76.00
29663;DHT22;16578;53.266;7.920;2023-02-01T09:20:01;10.10;76.00
29663;DHT22;16578;53.266;7.920;2023-02-01T09:22:27;10.20;76.00
29663;DHT22;16578;53.266;7.920;2023-02-01T09:24:53;10.20;76.00
29663;DHT22;16578;53.266;7.920;2023-02-01T09:27:18;10.20;76.00
29663;DHT22;16578;53.266;7.920;2023-02-01T09:29:44;10.20;75.90
29663;DHT22;16578;53.266;7.920;2023-02-01T09:32:10;10.30;75.90
29663;DHT22;16578;53.266;7.920;2023-02-01T09:34:35;10.30;75.80
29663;DHT22;16578;53.266;7.920;2023-02-01T09:37:01;10.30;75.70
29663;DHT22;16578;53.266;7.920;2023-02-01T09:39:27;10.30;75.70
29663;DHT22;16578;53.266;7.920;2023-02-01T09:42:19;10.30;75.70
29663;DHT22;16578;53.266;7.920;2023-02-01T09:44:57;10.30;75.50
29663;DHT22;16578;53.266;7.920;2023-02-01T09:47:25;10.30;75.50
29663;DHT22;16578;53.266;7.920;2023-02-01T09:49:59;10.30;75.50
29663;DHT22;16578;53.266;7.920;2023-02-01T09:52:32;10.30;75.40
29663;DHT22;16578;53.266;7.920;2023-02-01T09:58:19;10.30;75.40
29663;DHT22;16578;53.266;7.920;2023-02-01T10:00:54;10.30;75.40
29663;DHT22;16578;53.266;7.920;2023-02-01T10:03:20;10.30;75.30
29663;DHT22;16578;53.266;7.920;2023-02-01T10:05:57;10.30;75.40
29663;DHT22;16578;53.266;7.920;2023-02-01T10:08:55;10.40;75.50
29663;DHT22;16578;53.266;7.920;2023-02-01T10:11:26;10.30;75.30
29663;DHT22;16578;53.266;7.920;2023-02-01T10:14:02;10.30;75.40
29663;DHT22;16578;53.266;7.920;2023-02-01T10:27:08;10.30;75.70
29663;DHT22;16578;53.266;7.920;2023-02-01T10:29:39;10.30;75.70
29663;DHT22;16578;53.266;7.920;2023-02-01T10:32:14;10.30;75.70
29663;DHT22;16578;53.266;7.920;2023-02-01T10:34:41;10.30;75.70
29663;DHT22;16578;53.266;7.920;2023-02-01T10:39:56;10.30;75.80
29663;DHT22;16578;53.266;7.920;2023-02-01T10:42:28;10.30;75.80
29663;DHT22;16578;53.266;7.920;2023-02-01T10:44:58;10.30;75.70
29663;DHT22;16578;53.266;7.920;2023-02-01T10:47:24;10.20;75.60
29663;DHT22;16578;53.266;7.920;2023-02-01T10:55:32;10.20;75.80
29663;DHT22;16578;53.266;7.920;2023-02-01T10:58:03;10.20;76.00
29663;DHT22;16578;53.266;7.920;2023-02-01T11:00:47;10.10;76.00
29663;DHT22;16578;53.266;7.920;2023-02-01T11:05:57;10.10;76.10
29663;DHT22;16578;53.266;7.920;2023-02-01T11:08:23;10.10;76.10
29663;DHT22;16578;53.266;7.920;2023-02-01T11:10:58;10.00;76.00
29663;DHT22;16578;53.266;7.920;2023-02-01T11:13:29;10.00;76.00
29663;DHT22;16578;53.266;7.920;2023-02-01T11:15:56;10.00;76.00
29663;DHT22;16578;53.266;7.920;2023-02-01T11:18:27;9.90;76.10
29663;DHT22;16578;53.266;7.920;2023-02-01T11:20:54;9.90;77.10
29663;DHT22;16578;53.266;7.920;2023-02-01T11:23:23;9.80;76.40
29663;DHT22;16578;53.266;7.920;2023-02-01T11:25:58;9.80;76.50
29663;DHT22;16578;53.266;7.920;2023-02-01T11:28:27;9.80;76.60
29663;DHT22;16578;53.266;7.920;2023-02-01T11:30:56;9.70;76.70
29663;DHT22;16578;53.266;7.920;2023-02-01T11:33:30;9.80;76.80
29663;DHT22;16578;53.266;7.920;2023-02-01T11:36:00;9.70;77.10
29663;DHT22;16578;53.266;7.920;2023-02-01T11:38:29;9.70;77.30
29663;DHT22;16578;53.266;7.920;2023-02-01T11:40:55;9.70;77.40
29663;DHT22;16578;53.266;7.920;2023-02-01T11:43:35;9.70;77.40
29663;DHT22;16578;53.266;7.920;2023-02-01T11:46:02;9.70;77.10
29663;DHT22;16578;53.266;7.920;2023-02-01T11:48:31;9.60;76.30
29663;DHT22;16578;53.266;7.920;2023-02-01T11:56:50;9.00;74.80
29663;DHT22;16578;53.266;7.920;2023-02-01T12:05:02;8.40;75.50
29663;DHT22;16578;53.266;7.920;2023-02-01T12:16:02;7.90;77.00
29663;DHT22;16578;53.266;7.920;2023-02-01T12:19:01;7.80;77.40
29663;DHT22;16578;53.266;7.920;2023-02-01T12:27:22;7.70;78.10
29663;DHT22;16578;53.266;7.920;2023-02-01T12:30:11;7.70;78.20
29663;DHT22;16578;53.266;7.920;2023-02-01T12:41:47;7.80;78.80
29663;DHT22;16578;53.266;7.920;2023-02-01T12:44:08;7.90;78.80
29663;DHT22;16578;53.266;7.920;2023-02-01T12:46:41;7.90;78.80
29663;DHT22;16578;53.266;7.920;2023-02-01T12:49:14;7.90;78.90
29663;DHT22;16578;53.266;7.920;2023-02-01T12:51:44;8.00;78.90
29663;DHT22;16578;53.266;7.920;2023-02-01T12:56:47;8.00;78.90
29663;DHT22;16578;53.266;7.920;2023-02-01T12:59:19;8.00;78.80
29663;DHT22;16578;53.266;7.920;2023-02-01T13:01:54;8.10;78.90
29663;DHT22;16578;53.266;7.920;2023-02-01T13:07:39;8.10;79.40
29663;DHT22;16578;53.266;7.920;2023-02-01T13:10:36;8.20;79.70
29663;DHT22;16578;53.266;7.920;2023-02-01T13:16:17;8.40;80.40
29663;DHT22;16578;53.266;7.920;2023-02-01T13:18:49;8.50;80.40
29663;DHT22;16578;53.266;7.920;2023-02-01T13:21:27;8.60;80.30
29663;DHT22;16578;53.266;7.920;2023-02-01T13:23:54;8.70;80.00
29663;DHT22;16578;53.266;7.920;2023-02-01T13:26:20;8.80;79.90
29663;DHT22;16578;53.266;7.920;2023-02-01T13:28:57;8.90;80.00
29663;DHT22;16578;53.266;7.920;2023-02-01T13:37:27;9.10;79.70
29663;DHT22;16578;53.266;7.920;2023-02-01T13:40:05;9.20;79.60
29663;DHT22;16578;53.266;7.920;2023-02-01T13:42:51;9.20;79.40
29663;DHT22;16578;53.266;7.920;2023-02-01T13:45:54;9.20;79.40
29663;DHT22;16578;53.266;7.920;2023-02-01T13:48:27;9.30;79.60
29663;DHT22;16578;53.266;7.920;2023-02-01T13:50:56;9.40;79.80
29663;DHT22;16578;53.266;7.920;2023-02-01T13:53:30;9.50;79.70
29663;DHT22;16578;53.266;7.920;2023-02-01T13:55:57;9.50;79.60
29663;DHT22;16578;53.266;7.920;2023-02-01T13:58:31;9.60;79.60
29663;DHT22;16578;53.266;7.920;2023-02-01T14:03:57;9.70;79.60
29663;DHT22;16578;53.266;7.920;2023-02-01T14:19:30;10.00;77.90
29663;DHT22;16578;53.266;7.920;2023-02-01T14:24:49;10.00;78.00
29663;DHT22;16578;53.266;7.920;2023-02-01T14:27:28;9.90;78.10
29663;DHT22;16578;53.266;7.920;2023-02-01T14:29:56;10.10;78.20
29663;DHT22;16578;53.266;7.920;2023-02-01T14:32:31;10.10;77.60
29663;DHT22;16578;53.266;7.920;2023-02-01T14:35:00;10.20;77.80
29663;DHT22;16578;53.266;7.920;2023-02-01T14:37:28;10.30;77.70
29663;DHT22;16578;53.266;7.920;2023-02-01T14:47:52;10.60;76.30
29663;DHT22;16578;53.266;7.920;2023-02-01T14:55:51;10.60;75.50
29663;DHT22;16578;53.266;7.920;2023-02-01T14:58:38;10.60;75.40
29663;DHT22;16578;53.266;7.920;2023-02-01T15:09:07;10.60;75.10
29663;DHT22;16578;53.266;7.920;2023-02-01T15:11:54;10.60;75.70
29663;DHT22;16578;53.266;7.920;2023-02-01T15:14:20;10.60;74.70
29663;DHT22;16578;53.266;7.920;2023-02-01T15:16:45;10.50;74.90
29663;DHT22;16578;53.266;7.920;2023-02-01T15:19:19;10.50;75.10
29663;DHT22;16578;53.266;7.920;2023-02-01T15:21:49;10.50;75.40
29663;DHT22;16578;53.266;7.920;2023-02-01T15:24:28;10.50;75.40
29663;DHT22;16578;53.266;7.920;2023-02-01T15:26:54;10.50;75.30
29663;DHT22;16578;53.266;7.920;2023-02-01T15:29:22;10.60;75.50
29663;DHT22;16578;53.266;7.920;2023-02-01T15:31:52;10.70;75.20
29663;DHT22;16578;53.266;7.920;2023-02-01T15:34:18;10.70;75.20
29663;DHT22;16578;53.266;7.920;2023-02-01T15:36:44;10.70;75.00
29663;DHT22;16578;53.266;7.920;2023-02-01T15:39:15;10.70;74.60
29663;DHT22;16578;53.266;7.920;2023-02-01T15:42:11;10.70;73.60
29663;DHT22;16578;53.266;7.920;2023-02-01T15:44:42;10.50;72.60
29663;DHT22;16578;53.266;7.920;2023-02-01T15:47:16;10.40;72.80
29663;DHT22;16578;53.266;7.920;2023-02-01T15:49:42;10.20;73.00
29663;DHT22;16578;53.266;7.920;2023-02-01T15:52:18;10.00;73.30
29663;DHT22;16578;53.266;7.920;2023-02-01T15:54:46;9.90;73.70
29663;DHT22;16578;53.266;7.920;2023-02-01T15:57:18;9.80;73.90
29663;DHT22;16578;53.266;7.920;2023-02-01T15:59:45;9.60;74.00
29663;DHT22;16578;53.266;7.920;2023-02-01T16:04:57;9.50;74.60
29663;DHT22;16578;53.266;7.920;2023-02-01T16:07:25;9.40;74.80
29663;DHT22;16578;53.266;7.920;2023-02-01T16:09:53;9.40;75.00
29663;DHT22;16578;53.266;7.920;2023-02-01T16:13:04;9.40;75.20
29663;DHT22;16578;53.266;7.920;2023-02-01T16:15:06;9.40;75.50
29663;DHT22;16578;53.266;7.920;2023-02-01T16:17:32;9.30;75.60
29663;DHT22;16578;53.266;7.920;2023-02-01T16:19:57;9.30;75.70
29663;DHT22;16578;53.266;7.920;2023-02-01T16:22:23;9.30;75.80
29663;DHT22;16578;53.266;7.920;2023-02-01T16:24:48;9.30;75.90
29663;DHT22;16578;53.266;7.920;2023-02-01T16:27:17;9.30;76.00
29663;DHT22;16578;53.266;7.920;2023-02-01T16:29:43;9.30;76.00
29663;DHT22;16578;53.266;7.920;2023-02-01T16:32:12;9.40;76.00
29663;DHT22;16578;53.266;7.920;2023-02-01T16:34:39;9.40;76.00
29663;DHT22;16578;53.266;7.920;2023-02-01T16:37:05;9.40;76.80
29663;DHT22;16578;53.266;7.920;2023-02-01T16:39:31;9.40;76.00
29663;DHT22;16578;53.266;7.920;2023-02-01T16:41:58;9.40;75.90
29663;DHT22;16578;53.266;7.920;2023-02-01T16:44:23;9.40;75.90
29663;DHT22;16578;53.266;7.920;2023-02-01T16:46:50;9.40;75.80
29663;DHT22;16578;53.266;7.920;2023-02-01T16:49:20;9.40;75.80
29663;DHT22;16578;53.266;7.920;2023-02-01T16:51:45;9.40;75.70
29663;DHT22;16578;53.266;7.920;2023-02-01T16:54:12;9.40;75.60
29663;DHT22;16578;53.266;7.920;2023-02-01T16:56:37;9.40;75.60
29663;DHT22;16578;53.266;7.920;2023-02-01T16:59:05;9.40;75.60
29663;DHT22;16578;53.266;7.920;2023-02-01T17:01:31;9.40;75.80
29663;DHT22;16578;53.266;7.920;2023-02-01T17:03:58;9.50;75.70
29663;DHT22;16578;53.266;7.920;2023-02-01T17:06:24;9.40;75.50
29663;DHT22;16578;53.266;7.920;2023-02-01T17:08:51;9.40;75.50
29663;DHT22;16578;53.266;7.920;2023-02-01T17:11:17;9.50;75.50
29663;DHT22;16578;53.266;7.920;2023-02-01T17:13:43;9.40;75.20
29663;DHT22;16578;53.266;7.920;2023-02-01T17:19:06;9.50;75.30
29663;DHT22;16578;53.266;7.920;2023-02-01T17:21:34;9.50;75.20
29663;DHT22;16578;53.266;7.920;2023-02-01T17:24:01;9.50;75.10
29663;DHT22;16578;53.266;7.920;2023-02-01T17:26:26;9.50;75.10
29663;DHT22;16578;53.266;7.920;2023-02-01T17:28:52;9.50;75.00
29663;DHT22;16578;53.266;7.920;2023-02-01T17:31:17;9.50;75.10
29663;DHT22;16578;53.266;7.920;2023-02-01T17:33:43;9.50;75.00
29663;DHT22;16578;53.266;7.920;2023-02-01T17:36:11;9.50;75.00
29663;DHT22;16578;53.266;7.920;2023-02-01T17:38:37;9.50;75.00
29663;DHT22;16578;53.266;7.920;2023-02-01T17:41:03;9.50;75.10
29663;DHT22;16578;53.266;7.920;2023-02-01T17:43:28;9.60;75.10
29663;DHT22;16578;53.266;7.920;2023-02-01T17:45:55;9.60;75.10
29663;DHT22;16578;53.266;7.920;2023-02-01T17:48:22;9.60;75.10
29663;DHT22;16578;53.266;7.920;2023-02-01T17:50:48;9.70;75.10
29663;DHT22;16578;53.266;7.920;2023-02-01T17:53:19;9.70;74.80
29663;DHT22;16578;53.266;7.920;2023-02-01T17:55:48;9.70;74.30
29663;DHT22;16578;53.266;7.920;2023-02-01T17:58:14;9.70;74.60
29663;DHT22;16578;53.266;7.920;2023-02-01T18:00:40;9.70;74.50
29663;DHT22;16578;53.266;7.920;2023-02-01T18:03:06;9.70;74.60
29663;DHT22;16578;53.266;7.920;2023-02-01T18:05:35;9.80;74.60
29663;DHT22;16578;53.266;7.920;2023-02-01T18:08:01;9.70;73.90
29663;DHT22;16578;53.266;7.920;2023-02-01T18:10:27;9.80;74.20
29663;DHT22;16578;53.266;7.920;2023-02-01T18:12:52;9.70;74.20
29663;DHT22;16578;53.266;7.920;2023-02-01T18:15:20;9.70;74.10
29663;DHT22;16578;53.266;7.920;2023-02-01T18:17:46;9.80;74.20